sensor_id;sensor_type;location;lat;lon;timestamp;pressure;altitude;pressure_sealevel;temperature;humidity
44140;BME280;29803;51.048;4.686;2023-04-07T00:00:17;101510.97;;;8.57;100.00
44140;BME280;29803;51.048;4.686;2023-04-07T00:02:48;101519.28;;;8.54;100.00
44140;BME280;29803;51.048;4.686;2023-04-07T00:05:18;101517.72;;;8.52;100.00
44140;BME280;29803;51.048;4.686;2023-04-07T00:07:49;101524.75;;;8.53;100.00
44140;BME280;29803;51.048;4.686;2023-04-07T00:10:19;101522.06;;;8.53;100.00
44140;BME280;29803;51.048;4.686;2023-04-07T00:12:50;101524.47;;;8.46;100.00
44140;BME280;29803;51.048;4.686;2023-04-07T00:15:21;101522.50;;;8.48;100.00
44140;BME280;29803;51.048;4.686;2023-04-07T00:17:51;101524.47;;;8.46;100.00
44140;BME280;29803;51.048;4.686;2023-04-07T00:20:22;101528.81;;;8.47;100.00
44140;BME280;29803;51.048;4.686;2023-04-07T00:22:53;101534.16;;;8.47;100.00
44140;BME280;29803;51.048;4.686;2023-04-07T00:25:23;101536.84;;;8.47;100.00
44140;BME280;29803;51.048;4.686;2023-04-07T00:27:54;101537.97;;;8.45;100.00
44140;BME280;29803;51.048;4.686;2023-04-07T00:30:24;101536.00;;;8.47;100.00
44140;BME280;29803;51.048;4.686;2023-04-07T00:32:55;101538.09;;;8.43;100.00
44140;BME280;29803;51.048;4.686;2023-04-07T00:35:26;101545.56;;;8.40;100.00
44140;BME280;29803;51.048;4.686;2023-04-07T00:37:56;101548.22;;;8.40;100.00
44140;BME280;29803;51.048;4.686;2023-04-07T00:40:27;101547.25;;;8.41;100.00
44140;BME280;29803;51.048;4.686;2023-04-07T00:42:58;101543.72;;;8.40;100.00
44140;BME280;29803;51.048;4.686;2023-04-07T00:45:28;101549.50;;;8.45;100.00
44140;BME280;29803;51.048;4.686;2023-04-07T00:47:58;101550.63;;;8.43;100.00
44140;BME280;29803;51.048;4.686;2023-04-07T00:50:29;101543.13;;;8.37;100.00
44140;BME280;29803;51.048;4.686;2023-04-07T00:52:59;101541.81;;;8.31;100.00
44140;BME280;29803;51.048;4.686;2023-04-07T00:55:31;101541.25;;;8.27;100.00
44140;BME280;29803;51.048;4.686;2023-04-07T00:58:02;101539.56;;;8.26;100.00
44140;BME280;29803;51.048;4.686;2023-04-07T01:00:40;101533.63;;;8.23;100.00
44140;BME280;29803;51.048;4.686;2023-04-07T01:03:19;101529.16;;;8.23;100.00
44140;BME280;29803;51.048;4.686;2023-04-07T01:05:59;101530.09;;;8.22;100.00
44140;BME280;29803;51.048;4.686;2023-04-07T01:08:50;101534.03;;;8.18;100.00
44140;BME280;29803;51.048;4.686;2023-04-07T01:11:29;101527.81;;;8.18;100.00
44140;BME280;29803;51.048;4.686;2023-04-07T01:14:02;101522.78;;;8.15;100.00
44140;BME280;29803;51.048;4.686;2023-04-07T01:16:36;101520.63;;;8.09;100.00
44140;BME280;29803;51.048;4.686;2023-04-07T01:22:22;101520.06;;;8.05;100.00
44140;BME280;29803;51.048;4.686;2023-04-07T01:29:58;101535.63;;;8.00;100.00
44140;BME280;29803;51.048;4.686;2023-04-07T01:32:31;101528.59;;;7.99;100.00
44140;BME280;29803;51.048;4.686;2023-04-07T01:35:06;101533.22;;;7.97;100.00
44140;BME280;29803;51.048;4.686;2023-04-07T01:37:39;101528.41;;;7.91;100.00
44140;BME280;29803;51.048;4.686;2023-04-07T01:40:11;101530.25;;;7.90;100.00
44140;BME280;29803;51.048;4.686;2023-04-07T01:42:43;101526.13;;;7.86;100.00
44140;BME280;29803;51.048;4.686;2023-04-07T01:45:15;101531.47;;;7.86;100.00
44140;BME280;29803;51.048;4.686;2023-04-07T01:47:47;101530.88;;;7.83;100.00
44140;BME280;29803;51.048;4.686;2023-04-07T01:50:20;101525.81;;;7.79;100.00
44140;BME280;29803;51.048;4.686;2023-04-07T01:52:51;101524.38;;;7.75;100.00
44140;BME280;29803;51.048;4.686;2023-04-07T01:55:22;101531.94;;;7.70;100.00
44140;BME280;29803;51.048;4.686;2023-04-07T01:57:53;101530.50;;;7.66;100.00
44140;BME280;29803;51.048;4.686;2023-04-07T02:00:24;101540.59;;;7.63;100.00
44140;BME280;29803;51.048;4.686;2023-04-07T02:02:58;101527.66;;;7.58;100.00
44140;BME280;29803;51.048;4.686;2023-04-07T02:05:34;101537.75;;;7.55;100.00
44140;BME280;29803;51.048;4.686;2023-04-07T02:08:07;101534.47;;;7.51;100.00
44140;BME280;29803;51.048;4.686;2023-04-07T02:10:40;101540.81;;;7.50;100.00
44140;BME280;29803;51.048;4.686;2023-04-07T02:13:15;101543.63;;;7.48;100.00
44140;BME280;29803;51.048;4.686;2023-04-07T02:15:47;65085.03;;;-146.26;100.00
44140;BME280;29803;51.048;4.686;2023-04-07T02:18:19;101549.34;;;7.44;100.00
44140;BME280;29803;51.048;4.686;2023-04-07T02:20:52;101543.41;;;7.40;100.00
44140;BME280;29803;51.048;4.686;2023-04-07T02:23:23;101547.44;;;7.35;100.00
44140;BME280;29803;51.048;4.686;2023-04-07T02:25:56;101548.66;;;7.31;100.00
44140;BME280;29803;51.048;4.686;2023-04-07T02:28:27;101553.41;;;7.27;100.00
44140;BME280;29803;51.048;4.686;2023-04-07T02:30:57;101553.78;;;7.22;100.00
44140;BME280;29803;51.048;4.686;2023-04-07T02:33:28;101556.59;;;7.21;100.00
44140;BME280;29803;51.048;4.686;2023-04-07T02:35:58;101551.50;;;7.18;100.00
44140;BME280;29803;51.048;4.686;2023-04-07T02:38:28;101555.66;;;7.11;100.00
44140;BME280;29803;51.048;4.686;2023-04-07T02:40:59;101555.66;;;7.11;100.00
44140;BME280;29803;51.048;4.686;2023-04-07T02:43:30;101560.75;;;7.14;100.00
44140;BME280;29803;51.048;4.686;2023-04-07T02:46:00;101557.34;;;7.12;100.00
44140;BME280;29803;51.048;4.686;2023-04-07T02:48:31;101554.94;;;7.09;100.00
44140;BME280;29803;51.048;4.686;2023-04-07T02:51:01;101555.41;;;7.03;100.00
44140;BME280;29803;51.048;4.686;2023-04-07T02:53:32;101556.66;;;6.98;100.00
44140;BME280;29803;51.048;4.686;2023-04-07T02:56:02;101563.09;;;6.96;100.00
44140;BME280;29803;51.048;4.686;2023-04-07T02:58:33;101564.31;;;6.92;100.00
44140;BME280;29803;51.048;4.686;2023-04-07T03:01:03;101564.38;;;6.86;100.00
44140;BME280;29803;51.048;4.686;2023-04-07T03:03:34;101570.28;;;6.84;100.00
44140;BME280;29803;51.048;4.686;2023-04-07T03:06:05;101582.03;;;6.82;100.00
44140;BME280;29803;51.048;4.686;2023-04-07T03:08:35;101569.06;;;6.77;100.00
44140;BME280;29803;51.048;4.686;2023-04-07T03:11:06;78288.03;;;6.77;100.00
44140;BME280;29803;51.048;4.686;2023-04-07T03:13:36;101578.38;;;6.83;100.00
44140;BME280;29803;51.048;4.686;2023-04-07T03:16:07;84396.69;;;6.80;100.00
44140;BME280;29803;51.048;4.686;2023-04-07T03:18:37;84391.03;;;6.76;100.00
44140;BME280;29803;51.048;4.686;2023-04-07T03:21:08;65085.03;;;-146.26;100.00
44140;BME280;29803;51.048;4.686;2023-04-07T03:23:38;65085.03;;;-146.26;100.00
44140;BME280;29803;51.048;4.686;2023-04-07T03:26:09;65085.03;;;-146.26;100.00
44140;BME280;29803;51.048;4.686;2023-04-07T03:28:39;65085.03;;;-146.26;100.00
44140;BME280;29803;51.048;4.686;2023-04-07T03:31:10;65085.03;;;-146.26;100.00
44140;BME280;29803;51.048;4.686;2023-04-07T03:33:40;65085.03;;;-146.26;100.00
44140;BME280;29803;51.048;4.686;2023-04-07T03:36:10;65085.03;;;-146.26;100.00
44140;BME280;29803;51.048;4.686;2023-04-07T03:38:41;65085.03;;;-146.26;100.00
44140;BME280;29803;51.048;4.686;2023-04-07T03:41:11;65085.03;;;-146.26;100.00
44140;BME280;29803;51.048;4.686;2023-04-07T03:43:42;65085.03;;;-146.26;100.00
44140;BME280;29803;51.048;4.686;2023-04-07T03:46:12;65085.03;;;-146.26;100.00
44140;BME280;29803;51.048;4.686;2023-04-07T03:48:43;65085.03;;;-146.26;100.00
44140;BME280;29803;51.048;4.686;2023-04-07T03:51:14;65085.03;;;-146.26;100.00
44140;BME280;29803;51.048;4.686;2023-04-07T03:53:45;65085.03;;;-146.26;100.00
44140;BME280;29803;51.048;4.686;2023-04-07T03:56:15;65085.03;;;-146.26;100.00
44140;BME280;29803;51.048;4.686;2023-04-07T03:58:46;65085.03;;;-146.26;100.00
44140;BME280;29803;51.048;4.686;2023-04-07T04:01:18;65085.03;;;-146.26;100.00
44140;BME280;29803;51.048;4.686;2023-04-07T04:03:48;65085.03;;;-146.26;100.00
44140;BME280;29803;51.048;4.686;2023-04-07T04:06:19;65085.03;;;-146.26;100.00
44140;BME280;29803;51.048;4.686;2023-04-07T04:08:49;65085.03;;;-146.26;100.00
44140;BME280;29803;51.048;4.686;2023-04-07T04:11:20;65085.03;;;-146.26;100.00
44140;BME280;29803;51.048;4.686;2023-04-07T04:13:51;65085.03;;;-146.26;100.00
44140;BME280;29803;51.048;4.686;2023-04-07T04:16:21;65085.03;;;-146.26;100.00
44140;BME280;29803;51.048;4.686;2023-04-07T04:18:52;65085.03;;;-146.26;100.00
44140;BME280;29803;51.048;4.686;2023-04-07T04:21:22;65085.03;;;-146.26;100.00
44140;BME280;29803;51.048;4.686;2023-04-07T04:23:53;65085.03;;;-146.26;100.00
44140;BME280;29803;51.048;4.686;2023-04-07T04:26:23;65085.03;;;-146.26;100.00
44140;BME280;29803;51.048;4.686;2023-04-07T04:28:55;65085.03;;;-146.26;100.00
44140;BME280;29803;51.048;4.686;2023-04-07T04:31:25;65085.03;;;-146.26;100.00
44140;BME280;29803;51.048;4.686;2023-04-07T04:33:56;65085.03;;;-146.26;100.00
44140;BME280;29803;51.048;4.686;2023-04-07T04:36:26;65085.03;;;-146.26;100.00
44140;BME280;29803;51.048;4.686;2023-04-07T04:38:57;65085.03;;;-146.26;100.00
44140;BME280;29803;51.048;4.686;2023-04-07T04:41:27;65085.03;;;-146.26;100.00
44140;BME280;29803;51.048;4.686;2023-04-07T04:43:58;65085.03;;;-146.26;100.00
44140;BME280;29803;51.048;4.686;2023-04-07T04:46:28;65085.03;;;-146.26;100.00
44140;BME280;29803;51.048;4.686;2023-04-07T04:48:59;65085.03;;;-146.26;100.00
44140;BME280;29803;51.048;4.686;2023-04-07T04:51:30;65085.03;;;-146.26;100.00
44140;BME280;29803;51.048;4.686;2023-04-07T04:54:00;65085.03;;;-146.26;100.00
44140;BME280;29803;51.048;4.686;2023-04-07T04:56:33;65085.03;;;-146.26;100.00
44140;BME280;29803;51.048;4.686;2023-04-07T04:59:03;65085.03;;;-146.26;100.00
44140;BME280;29803;51.048;4.686;2023-04-07T05:01:34;65085.03;;;-146.26;100.00
44140;BME280;29803;51.048;4.686;2023-04-07T05:04:04;65085.03;;;-146.26;100.00
44140;BME280;29803;51.048;4.686;2023-04-07T05:06:35;65085.03;;;-146.26;100.00
44140;BME280;29803;51.048;4.686;2023-04-07T05:09:06;65085.03;;;-146.26;100.00
44140;BME280;29803;51.048;4.686;2023-04-07T05:11:36;65085.03;;;-146.26;100.00
44140;BME280;29803;51.048;4.686;2023-04-07T05:14:06;65085.03;;;-146.26;100.00
44140;BME280;29803;51.048;4.686;2023-04-07T05:16:37;65085.03;;;-146.26;100.00
44140;BME280;29803;51.048;4.686;2023-04-07T05:19:07;65085.03;;;-146.26;100.00
44140;BME280;29803;51.048;4.686;2023-04-07T05:21:38;65085.03;;;-146.26;100.00
44140;BME280;29803;51.048;4.686;2023-04-07T05:24:08;65085.03;;;-146.26;100.00
44140;BME280;29803;51.048;4.686;2023-04-07T05:26:39;65085.03;;;-146.26;100.00
44140;BME280;29803;51.048;4.686;2023-04-07T05:29:09;65085.03;;;-146.26;100.00
44140;BME280;29803;51.048;4.686;2023-04-07T05:31:40;65085.03;;;-146.26;100.00
44140;BME280;29803;51.048;4.686;2023-04-07T05:34:10;65085.03;;;-146.26;100.00
44140;BME280;29803;51.048;4.686;2023-04-07T05:36:41;65085.03;;;-146.26;100.00
44140;BME280;29803;51.048;4.686;2023-04-07T05:39:12;65085.03;;;-146.26;100.00
44140;BME280;29803;51.048;4.686;2023-04-07T05:41:42;65085.03;;;-146.26;100.00
44140;BME280;29803;51.048;4.686;2023-04-07T05:44:13;65085.03;;;-146.26;100.00
44140;BME280;29803;51.048;4.686;2023-04-07T05:46:43;65085.03;;;-146.26;100.00
44140;BME280;29803;51.048;4.686;2023-04-07T05:49:14;65085.03;;;-146.26;100.00
44140;BME280;29803;51.048;4.686;2023-04-07T05:51:44;65085.03;;;-146.26;100.00
44140;BME280;29803;51.048;4.686;2023-04-07T05:54:15;65085.03;;;-146.26;100.00
44140;BME280;29803;51.048;4.686;2023-04-07T05:56:45;65085.03;;;-146.26;100.00
44140;BME280;29803;51.048;4.686;2023-04-07T05:59:16;65085.03;;;-146.26;100.00
44140;BME280;29803;51.048;4.686;2023-04-07T06:01:46;65085.03;;;-146.26;100.00
44140;BME280;29803;51.048;4.686;2023-04-07T06:04:17;65085.03;;;-146.26;100.00
44140;BME280;29803;51.048;4.686;2023-04-07T06:06:47;65085.03;;;-146.26;100.00
44140;BME280;29803;51.048;4.686;2023-04-07T06:09:18;65085.03;;;-146.26;100.00
44140;BME280;29803;51.048;4.686;2023-04-07T06:11:48;65085.03;;;-146.26;100.00
44140;BME280;29803;51.048;4.686;2023-04-07T06:14:19;65085.03;;;-146.26;100.00
44140;BME280;29803;51.048;4.686;2023-04-07T06:16:50;65085.03;;;-146.26;100.00
44140;BME280;29803;51.048;4.686;2023-04-07T06:19:20;65085.03;;;-146.26;100.00
44140;BME280;29803;51.048;4.686;2023-04-07T06:21:51;65085.03;;;-146.26;100.00
44140;BME280;29803;51.048;4.686;2023-04-07T06:24:22;65085.03;;;-146.26;100.00
44140;BME280;29803;51.048;4.686;2023-04-07T06:26:54;65085.03;;;-146.26;100.00
44140;BME280;29803;51.048;4.686;2023-04-07T06:29:26;65085.03;;;-146.26;100.00
44140;BME280;29803;51.048;4.686;2023-04-07T06:31:56;65085.03;;;-146.26;100.00
44140;BME280;29803;51.048;4.686;2023-04-07T06:34:27;65085.03;;;-146.26;100.00
44140;BME280;29803;51.048;4.686;2023-04-07T06:36:58;65085.03;;;-146.26;100.00
44140;BME280;29803;51.048;4.686;2023-04-07T06:39:29;65085.03;;;-146.26;100.00
44140;BME280;29803;51.048;4.686;2023-04-07T06:42:00;65085.03;;;-146.26;100.00
44140;BME280;29803;51.048;4.686;2023-04-07T06:44:30;65085.03;;;-146.26;100.00
44140;BME280;29803;51.048;4.686;2023-04-07T06:47:01;65085.03;;;-146.26;100.00
44140;BME280;29803;51.048;4.686;2023-04-07T06:49:31;65085.03;;;-146.26;100.00
44140;BME280;29803;51.048;4.686;2023-04-07T06:52:02;65085.03;;;-146.26;100.00
44140;BME280;29803;51.048;4.686;2023-04-07T06:54:32;65085.03;;;-146.26;100.00
44140;BME280;29803;51.048;4.686;2023-04-07T06:57:03;65085.03;;;-146.26;100.00
44140;BME280;29803;51.048;4.686;2023-04-07T06:59:33;65085.03;;;-146.26;100.00
44140;BME280;29803;51.048;4.686;2023-04-07T07:02:03;65085.03;;;-146.26;100.00
44140;BME280;29803;51.048;4.686;2023-04-07T07:04:34;65085.03;;;-146.26;100.00
44140;BME280;29803;51.048;4.686;2023-04-07T07:07:05;65085.03;;;-146.26;100.00
44140;BME280;29803;51.048;4.686;2023-04-07T07:09:35;65085.03;;;-146.26;100.00
44140;BME280;29803;51.048;4.686;2023-04-07T07:12:06;65085.03;;;-146.26;100.00
44140;BME280;29803;51.048;4.686;2023-04-07T07:14:36;65085.03;;;-146.26;100.00
44140;BME280;29803;51.048;4.686;2023-04-07T07:17:07;65085.03;;;-146.26;100.00
44140;BME280;29803;51.048;4.686;2023-04-07T07:19:37;65085.03;;;-146.26;100.00
44140;BME280;29803;51.048;4.686;2023-04-07T07:22:08;65085.03;;;-146.26;100.00
44140;BME280;29803;51.048;4.686;2023-04-07T07:24:38;65085.03;;;-146.26;100.00
44140;BME280;29803;51.048;4.686;2023-04-07T07:27:11;65085.03;;;-146.26;100.00
44140;BME280;29803;51.048;4.686;2023-04-07T07:29:42;65085.03;;;-146.26;100.00
44140;BME280;29803;51.048;4.686;2023-04-07T07:32:12;65085.03;;;-146.26;100.00
44140;BME280;29803;51.048;4.686;2023-04-07T07:34:43;65085.03;;;-146.26;100.00
44140;BME280;29803;51.048;4.686;2023-04-07T07:37:13;65085.03;;;-146.26;100.00
44140;BME280;29803;51.048;4.686;2023-04-07T07:39:44;65085.03;;;-146.26;100.00
44140;BME280;29803;51.048;4.686;2023-04-07T07:42:14;65085.03;;;-146.26;100.00
44140;BME280;29803;51.048;4.686;2023-04-07T07:44:45;65085.03;;;-146.26;100.00
44140;BME280;29803;51.048;4.686;2023-04-07T07:47:15;65085.03;;;-146.26;100.00
44140;BME280;29803;51.048;4.686;2023-04-07T07:49:46;65085.03;;;-146.26;100.00
44140;BME280;29803;51.048;4.686;2023-04-07T07:52:16;65085.03;;;-146.26;100.00
44140;BME280;29803;51.048;4.686;2023-04-07T07:54:48;65085.03;;;-146.26;100.00
44140;BME280;29803;51.048;4.686;2023-04-07T07:57:18;65085.03;;;-146.26;100.00
44140;BME280;29803;51.048;4.686;2023-04-07T07:59:49;65085.03;;;-146.26;100.00
44140;BME280;29803;51.048;4.686;2023-04-07T08:02:20;65085.03;;;-146.26;100.00
44140;BME280;29803;51.048;4.686;2023-04-07T08:04:50;65085.03;;;-146.26;100.00
44140;BME280;29803;51.048;4.686;2023-04-07T08:07:21;65085.03;;;-146.26;100.00
44140;BME280;29803;51.048;4.686;2023-04-07T08:09:52;65085.03;;;-146.26;100.00
44140;BME280;29803;51.048;4.686;2023-04-07T08:12:22;65085.03;;;-146.26;100.00
44140;BME280;29803;51.048;4.686;2023-04-07T08:14:53;65085.03;;;-146.26;100.00
44140;BME280;29803;51.048;4.686;2023-04-07T08:17:23;65085.03;;;-146.26;100.00
44140;BME280;29803;51.048;4.686;2023-04-07T08:19:53;65085.03;;;-146.26;100.00
44140;BME280;29803;51.048;4.686;2023-04-07T08:22:24;65085.03;;;-146.26;100.00
44140;BME280;29803;51.048;4.686;2023-04-07T08:24:55;65085.03;;;-146.26;100.00
44140;BME280;29803;51.048;4.686;2023-04-07T08:27:25;65085.03;;;-146.26;100.00
44140;BME280;29803;51.048;4.686;2023-04-07T08:29:58;65085.03;;;-146.26;100.00
44140;BME280;29803;51.048;4.686;2023-04-07T08:32:47;65085.03;;;-146.26;100.00
44140;BME280;29803;51.048;4.686;2023-04-07T08:35:18;65085.03;;;-146.26;100.00
44140;BME280;29803;51.048;4.686;2023-04-07T08:37:48;65085.03;;;-146.26;100.00
44140;BME280;29803;51.048;4.686;2023-04-07T08:40:19;65085.03;;;-146.26;100.00
44140;BME280;29803;51.048;4.686;2023-04-07T08:42:50;65085.03;;;-146.26;100.00
44140;BME280;29803;51.048;4.686;2023-04-07T08:45:22;65085.03;;;-146.26;100.00
44140;BME280;29803;51.048;4.686;2023-04-07T08:47:55;65085.03;;;-146.26;100.00
44140;BME280;29803;51.048;4.686;2023-04-07T08:50:26;65085.03;;;-146.26;100.00
44140;BME280;29803;51.048;4.686;2023-04-07T08:52:59;65085.03;;;-146.26;100.00
44140;BME280;29803;51.048;4.686;2023-04-07T08:55:30;65085.03;;;-146.26;100.00
44140;BME280;29803;51.048;4.686;2023-04-07T08:58:02;65085.03;;;-146.26;100.00
44140;BME280;29803;51.048;4.686;2023-04-07T09:00:32;65085.03;;;-146.26;100.00
44140;BME280;29803;51.048;4.686;2023-04-07T09:03:03;65085.03;;;-146.26;100.00
44140;BME280;29803;51.048;4.686;2023-04-07T09:05:35;65085.03;;;-146.26;100.00
44140;BME280;29803;51.048;4.686;2023-04-07T09:08:05;65085.03;;;-146.26;100.00
44140;BME280;29803;51.048;4.686;2023-04-07T09:10:36;65085.03;;;-146.26;100.00
44140;BME280;29803;51.048;4.686;2023-04-07T09:13:06;65085.03;;;-146.26;100.00
44140;BME280;29803;51.048;4.686;2023-04-07T09:15:37;65085.03;;;-146.26;100.00
44140;BME280;29803;51.048;4.686;2023-04-07T09:18:09;65085.03;;;-146.26;100.00
44140;BME280;29803;51.048;4.686;2023-04-07T09:21:01;65085.03;;;-146.26;100.00
44140;BME280;29803;51.048;4.686;2023-04-07T09:23:35;65085.03;;;-146.26;100.00
44140;BME280;29803;51.048;4.686;2023-04-07T09:26:18;65085.03;;;-146.26;100.00
44140;BME280;29803;51.048;4.686;2023-04-07T09:28:54;65085.03;;;-146.26;100.00
44140;BME280;29803;51.048;4.686;2023-04-07T09:31:44;65085.03;;;-146.26;100.00
44140;BME280;29803;51.048;4.686;2023-04-07T09:37:20;65085.03;;;-146.26;100.00
44140;BME280;29803;51.048;4.686;2023-04-07T09:39:51;65085.03;;;-146.26;100.00
44140;BME280;29803;51.048;4.686;2023-04-07T09:42:23;65085.03;;;-146.26;100.00
44140;BME280;29803;51.048;4.686;2023-04-07T09:44:53;65085.03;;;-146.26;100.00
44140;BME280;29803;51.048;4.686;2023-04-07T09:47:42;65085.03;;;-146.26;100.00
44140;BME280;29803;51.048;4.686;2023-04-07T09:50:14;65085.03;;;-146.26;100.00
44140;BME280;29803;51.048;4.686;2023-04-07T09:52:57;65085.03;;;-146.26;100.00
44140;BME280;29803;51.048;4.686;2023-04-07T09:55:29;65085.03;;;-146.26;100.00
44140;BME280;29803;51.048;4.686;2023-04-07T09:58:00;65085.03;;;-146.26;100.00
44140;BME280;29803;51.048;4.686;2023-04-07T10:00:31;65085.03;;;-146.26;100.00
44140;BME280;29803;51.048;4.686;2023-04-07T10:03:02;65085.03;;;-146.26;100.00
44140;BME280;29803;51.048;4.686;2023-04-07T10:05:34;65085.03;;;-146.26;100.00
44140;BME280;29803;51.048;4.686;2023-04-07T10:08:05;65085.03;;;-146.26;100.00
44140;BME280;29803;51.048;4.686;2023-04-07T10:10:40;65085.03;;;-146.26;100.00
44140;BME280;29803;51.048;4.686;2023-04-07T10:13:12;65085.03;;;-146.26;100.00
44140;BME280;29803;51.048;4.686;2023-04-07T10:15:43;65085.03;;;-146.26;100.00
44140;BME280;29803;51.048;4.686;2023-04-07T10:18:13;65085.03;;;-146.26;100.00
44140;BME280;29803;51.048;4.686;2023-04-07T10:20:47;65085.03;;;-146.26;100.00
44140;BME280;29803;51.048;4.686;2023-04-07T10:23:21;65085.03;;;-146.26;100.00
44140;BME280;29803;51.048;4.686;2023-04-07T10:25:55;65085.03;;;-146.26;100.00
44140;BME280;29803;51.048;4.686;2023-04-07T10:28:28;65085.03;;;-146.26;100.00
44140;BME280;29803;51.048;4.686;2023-04-07T10:31:01;65085.03;;;-146.26;100.00
44140;BME280;29803;51.048;4.686;2023-04-07T10:33:50;65085.03;;;-146.26;100.00
44140;BME280;29803;51.048;4.686;2023-04-07T10:36:21;65085.03;;;-146.26;100.00
44140;BME280;29803;51.048;4.686;2023-04-07T10:41:41;65085.03;;;-146.26;100.00
44140;BME280;29803;51.048;4.686;2023-04-07T10:44:46;65085.03;;;-146.26;100.00
44140;BME280;29803;51.048;4.686;2023-04-07T10:47:18;65085.03;;;-146.26;100.00
44140;BME280;29803;51.048;4.686;2023-04-07T10:53:10;65085.03;;;-146.26;100.00
44140;BME280;29803;51.048;4.686;2023-04-07T10:55:43;65085.03;;;-146.26;100.00
44140;BME280;29803;51.048;4.686;2023-04-07T10:58:32;65085.03;;;-146.26;100.00
44140;BME280;29803;51.048;4.686;2023-04-07T11:06:57;65085.03;;;-146.26;100.00
44140;BME280;29803;51.048;4.686;2023-04-07T11:09:28;65085.03;;;-146.26;100.00
44140;BME280;29803;51.048;4.686;2023-04-07T11:11:59;65085.03;;;-146.26;100.00
44140;BME280;29803;51.048;4.686;2023-04-07T11:14:31;65085.03;;;-146.26;100.00
44140;BME280;29803;51.048;4.686;2023-04-07T11:17:02;65085.03;;;-146.26;100.00
44140;BME280;29803;51.048;4.686;2023-04-07T11:19:49;65085.03;;;-146.26;100.00
44140;BME280;29803;51.048;4.686;2023-04-07T11:22:20;65085.03;;;-146.26;100.00
44140;BME280;29803;51.048;4.686;2023-04-07T11:24:51;65085.03;;;-146.26;100.00
44140;BME280;29803;51.048;4.686;2023-04-07T11:27:21;65085.03;;;-146.26;100.00
44140;BME280;29803;51.048;4.686;2023-04-07T11:29:52;65085.03;;;-146.26;100.00
44140;BME280;29803;51.048;4.686;2023-04-07T11:32:22;65085.03;;;-146.26;100.00
44140;BME280;29803;51.048;4.686;2023-04-07T11:34:54;65085.03;;;-146.26;100.00
44140;BME280;29803;51.048;4.686;2023-04-07T11:37:26;65085.03;;;-146.26;100.00
44140;BME280;29803;51.048;4.686;2023-04-07T11:39:57;65085.03;;;-146.26;100.00
44140;BME280;29803;51.048;4.686;2023-04-07T11:42:47;65085.03;;;-146.26;100.00
44140;BME280;29803;51.048;4.686;2023-04-07T11:45:17;65085.03;;;-146.26;100.00
44140;BME280;29803;51.048;4.686;2023-04-07T11:47:49;65085.03;;;-146.26;100.00
44140;BME280;29803;51.048;4.686;2023-04-07T11:50:39;65085.03;;;-146.26;100.00
44140;BME280;29803;51.048;4.686;2023-04-07T11:53:10;65085.03;;;-146.26;100.00
44140;BME280;29803;51.048;4.686;2023-04-07T11:55:41;65085.03;;;-146.26;100.00
44140;BME280;29803;51.048;4.686;2023-04-07T11:58:11;65085.03;;;-146.26;100.00
44140;BME280;29803;51.048;4.686;2023-04-07T12:00:54;65085.03;;;-146.26;100.00
44140;BME280;29803;51.048;4.686;2023-04-07T12:03:26;65085.03;;;-146.26;100.00
44140;BME280;29803;51.048;4.686;2023-04-07T12:05:56;65085.03;;;-146.26;100.00
44140;BME280;29803;51.048;4.686;2023-04-07T12:08:39;65085.03;;;-146.26;100.00
44140;BME280;29803;51.048;4.686;2023-04-07T12:11:10;65085.03;;;-146.26;100.00
44140;BME280;29803;51.048;4.686;2023-04-07T12:13:41;65085.03;;;-146.26;100.00
44140;BME280;29803;51.048;4.686;2023-04-07T12:16:11;65085.03;;;-146.26;100.00
44140;BME280;29803;51.048;4.686;2023-04-07T12:18:42;65085.03;;;-146.26;100.00
44140;BME280;29803;51.048;4.686;2023-04-07T12:21:16;65085.03;;;-146.26;100.00
44140;BME280;29803;51.048;4.686;2023-04-07T12:23:47;65085.03;;;-146.26;100.00
44140;BME280;29803;51.048;4.686;2023-04-07T12:26:17;65085.03;;;-146.26;100.00
44140;BME280;29803;51.048;4.686;2023-04-07T12:28:48;65085.03;;;-146.26;100.00
44140;BME280;29803;51.048;4.686;2023-04-07T12:31:18;65085.03;;;-146.26;100.00
44140;BME280;29803;51.048;4.686;2023-04-07T12:33:49;65085.03;;;-146.26;100.00
44140;BME280;29803;51.048;4.686;2023-04-07T12:36:20;65085.03;;;-146.26;100.00
44140;BME280;29803;51.048;4.686;2023-04-07T12:38:50;65085.03;;;-146.26;100.00
44140;BME280;29803;51.048;4.686;2023-04-07T12:41:21;65085.03;;;-146.26;100.00
44140;BME280;29803;51.048;4.686;2023-04-07T12:43:51;65085.03;;;-146.26;100.00
44140;BME280;29803;51.048;4.686;2023-04-07T12:46:22;65085.03;;;-146.26;100.00
44140;BME280;29803;51.048;4.686;2023-04-07T12:48:52;65085.03;;;-146.26;100.00
44140;BME280;29803;51.048;4.686;2023-04-07T12:51:23;65085.03;;;-146.26;100.00
44140;BME280;29803;51.048;4.686;2023-04-07T12:53:53;65085.03;;;-146.26;100.00
44140;BME280;29803;51.048;4.686;2023-04-07T12:56:24;65085.03;;;-146.26;100.00
44140;BME280;29803;51.048;4.686;2023-04-07T12:58:54;65085.03;;;-146.26;100.00
44140;BME280;29803;51.048;4.686;2023-04-07T13:01:24;65085.03;;;-146.26;100.00
44140;BME280;29803;51.048;4.686;2023-04-07T13:03:55;65085.03;;;-146.26;100.00
44140;BME280;29803;51.048;4.686;2023-04-07T13:06:26;65085.03;;;-146.26;100.00
44140;BME280;29803;51.048;4.686;2023-04-07T13:08:56;65085.03;;;-146.26;100.00
44140;BME280;29803;51.048;4.686;2023-04-07T13:11:27;65085.03;;;-146.26;100.00
44140;BME280;29803;51.048;4.686;2023-04-07T13:13:57;65085.03;;;-146.26;100.00
44140;BME280;29803;51.048;4.686;2023-04-07T13:16:28;65085.03;;;-146.26;100.00
44140;BME280;29803;51.048;4.686;2023-04-07T13:18:59;65085.03;;;-146.26;100.00
44140;BME280;29803;51.048;4.686;2023-04-07T13:21:29;65085.03;;;-146.26;100.00